Time,TemperatureF,DewpointF,PressureIn,WindDirection,WindDirectionDegrees,WindSpeedMPH,WindSpeedGustMPH,Humidity,HourlyPrecipIn,Conditions,Clouds,dailyrainin,SoftwareType,DateUTC
2013-05-15 00:04:00,76.7,58.0,29.87,South,188,8.4,8.4,52,0.00,,,0.00,TxWx,2013-05-15 05:04:00,
2013-05-15 00:09:00,76.5,57.0,29.86,South,189,13.2,14.4,53,0.00,,,0.00,TxWx,2013-05-15 05:09:00,
2013-05-15 00:15:00,76.4,57.0,29.86,South,184,6.0,6.6,53,0.00,,,0.00,TxWx,2013-05-15 05:15:00,
2013-05-15 00:20:00,76.4,57.0,29.86,South,184,10.8,11.7,53,0.00,,,0.00,TxWx,2013-05-15 05:20:00,
2013-05-15 00:25:00,76.8,58.0,29.86,South,190,17.4,17.4,52,0.00,,,0.00,TxWx,2013-05-15 05:25:00,
2013-05-15 00:30:00,76.6,58.0,29.85,South,189,12.3,12.9,52,0.00,,,0.00,TxWx,2013-05-15 05:30:00,
2013-05-15 00:36:00,76.4,57.0,29.85,South,191,6.0,6.0,52,0.00,,,0.00,TxWx,2013-05-15 05:36:00,
2013-05-15 00:41:00,76.5,58.0,29.85,South,184,7.5,8.4,53,0.00,,,0.00,TxWx,2013-05-15 05:41:00,
2013-05-15 00:46:00,76.3,57.0,29.85,South,191,10.8,11.4,53,0.00,,,0.00,TxWx,2013-05-15 05:46:00,
2013-05-15 00:51:00,76.4,57.0,29.85,South,188,15.0,16.8,53,0.00,,,0.00,TxWx,2013-05-15 05:51:00,
2013-05-15 00:56:00,76.2,57.0,29.84,South,185,10.2,10.8,53,0.00,,,0.00,TxWx,2013-05-15 05:56:00,
2013-05-15 01:02:00,76.4,57.0,29.84,SSW,192,20.7,21.0,53,0.00,,,0.00,TxWx,2013-05-15 06:02:00,
2013-05-15 01:07:00,76.1,58.0,29.84,South,184,9.9,9.9,53,0.00,,,0.00,TxWx,2013-05-15 06:07:00,
2013-05-15 01:12:00,75.7,58.0,29.84,South,187,19.8,19.8,54,0.00,,,0.00,TxWx,2013-05-15 06:12:00,
2013-05-15 01:17:00,75.4,57.0,29.84,South,191,17.1,17.1,55,0.00,,,0.00,TxWx,2013-05-15 06:17:00,
2013-05-15 01:22:00,75.1,58.0,29.84,South,189,13.5,13.5,55,0.00,,,0.00,TxWx,2013-05-15 06:22:00,
2013-05-15 01:27:00,74.8,58.0,29.84,South,187,16.2,16.2,55,0.00,,,0.00,TxWx,2013-05-15 06:27:00,
2013-05-15 01:33:00,74.8,58.0,29.84,SSW,192,18.3,19.2,55,0.00,,,0.00,TxWx,2013-05-15 06:33:00,
2013-05-15 01:38:00,74.5,57.0,29.84,SSW,196,11.4,11.4,55,0.00,,,0.00,TxWx,2013-05-15 06:38:00,
2013-05-15 01:43:00,74.4,57.0,29.84,South,190,9.3,9.3,55,0.00,,,0.00,TxWx,2013-05-15 06:43:00,
2013-05-15 01:48:00,74.4,56.0,29.84,South,190,9.0,9.6,54,0.00,,,0.00,TxWx,2013-05-15 06:48:00,
2013-05-15 01:53:00,74.4,56.0,29.83,South,191,9.9,10.2,54,0.00,,,0.00,TxWx,2013-05-15 06:53:00,
2013-05-15 01:59:00,74.3,56.0,29.83,SSW,192,8.1,8.1,53,0.00,,,0.00,TxWx,2013-05-15 06:59:00,
2013-05-15 02:04:00,74.2,56.0,29.83,SSW,197,6.0,6.9,53,0.00,,,0.00,TxWx,2013-05-15 07:04:00,
2013-05-15 02:09:00,74.0,56.0,29.83,SSW,198,7.5,9.9,53,0.00,,,0.00,TxWx,2013-05-15 07:09:00,
2013-05-15 02:14:00,73.8,56.0,29.83,SSW,192,7.5,8.1,53,0.00,,,0.00,TxWx,2013-05-15 07:14:00,
2013-05-15 02:19:00,73.7,55.0,29.83,SSW,193,5.4,5.4,53,0.00,,,0.00,TxWx,2013-05-15 07:19:00,
2013-05-15 02:24:00,73.8,55.0,29.83,SSW,195,7.2,9.9,52,0.00,,,0.00,TxWx,2013-05-15 07:24:00,
2013-05-15 02:30:00,73.9,55.0,29.83,SSW,194,14.1,14.7,52,0.00,,,0.00,TxWx,2013-05-15 07:30:00,
2013-05-15 02:35:00,73.8,55.0,29.83,SSW,195,9.3,9.3,51,0.00,,,0.00,TxWx,2013-05-15 07:35:00,
2013-05-15 02:40:00,73.9,54.0,29.82,SSW,203,9.3,13.2,51,0.00,,,0.00,TxWx,2013-05-15 07:40:00,
2013-05-15 02:45:00,74.0,54.0,29.82,SSW,194,9.6,9.9,50,0.00,,,0.00,TxWx,2013-05-15 07:45:00,
2013-05-15 02:50:00,74.2,54.0,29.82,SSW,196,13.2,13.2,50,0.00,,,0.00,TxWx,2013-05-15 07:50:00,
2013-05-15 02:56:00,74.6,54.0,29.82,SSW,195,14.4,15.6,49,0.00,,,0.00,TxWx,2013-05-15 07:56:00,
2013-05-15 03:01:00,74.7,54.0,29.82,SSW,198,17.1,18.0,48,0.00,,,0.00,TxWx,2013-05-15 08:01:00,
2013-05-15 03:06:00,75.0,54.0,29.82,SSW,201,9.0,9.0,48,0.00,,,0.00,TxWx,2013-05-15 08:06:00,
2013-05-15 03:11:00,75.1,53.0,29.82,South,190,8.4,8.4,47,0.00,,,0.00,TxWx,2013-05-15 08:11:00,
2013-05-15 03:16:00,75.0,53.0,29.82,SSW,199,12.3,12.3,47,0.00,,,0.00,TxWx,2013-05-15 08:16:00,
2013-05-15 03:21:00,75.0,53.0,29.83,SSW,201,14.1,15.9,47,0.00,,,0.00,TxWx,2013-05-15 08:21:00,
2013-05-15 03:26:00,74.7,53.0,29.83,SSW,192,9.9,12.6,47,0.00,,,0.00,TxWx,2013-05-15 08:26:00,
2013-05-15 03:32:00,74.8,54.0,29.83,SSW,205,15.0,15.3,48,0.00,,,0.00,TxWx,2013-05-15 08:32:00,
2013-05-15 03:37:00,74.8,53.0,29.83,SSW,198,11.1,13.5,47,0.00,,,0.00,TxWx,2013-05-15 08:37:00,
2013-05-15 03:42:00,74.8,53.0,29.83,SSW,197,12.0,17.1,47,0.00,,,0.00,TxWx,2013-05-15 08:42:00,
2013-05-15 03:47:00,74.8,53.0,29.83,SSW,199,8.1,9.3,47,0.00,,,0.00,TxWx,2013-05-15 08:47:00,
2013-05-15 03:52:00,74.7,53.0,29.83,SSW,198,10.2,11.4,47,0.00,,,0.00,TxWx,2013-05-15 08:52:00,
2013-05-15 03:57:00,74.6,54.0,29.83,SSW,201,9.9,10.8,48,0.00,,,0.00,TxWx,2013-05-15 08:57:00,
2013-05-15 04:02:00,74.5,54.0,29.83,SSW,196,10.2,12.9,48,0.00,,,0.00,TxWx,2013-05-15 09:02:00,
2013-05-15 04:08:00,74.6,54.0,29.83,SSW,194,8.1,8.1,48,0.00,,,0.00,TxWx,2013-05-15 09:08:00,
2013-05-15 04:13:00,74.4,53.0,29.83,SSW,203,12.3,12.3,48,0.00,,,0.00,TxWx,2013-05-15 09:13:00,
2013-05-15 04:18:00,74.5,53.0,29.83,SSW,205,6.3,6.3,48,0.00,,,0.00,TxWx,2013-05-15 09:18:00,
2013-05-15 04:23:00,74.6,54.0,29.84,SSW,197,16.5,16.5,48,0.00,,,0.00,TxWx,2013-05-15 09:23:00,
2013-05-15 04:28:00,74.5,53.0,29.84,SSW,193,5.7,8.1,48,0.00,,,0.00,TxWx,2013-05-15 09:28:00,
2013-05-15 04:33:00,74.6,54.0,29.84,SSW,199,12.0,13.8,48,0.00,,,0.00,TxWx,2013-05-15 09:33:00,
2013-05-15 04:38:00,74.6,54.0,29.84,SSW,197,12.9,12.9,49,0.00,,,0.00,TxWx,2013-05-15 09:38:00,
2013-05-15 04:43:00,74.7,54.0,29.85,SSW,204,12.3,13.2,49,0.00,,,0.00,TxWx,2013-05-15 09:43:00,
2013-05-15 04:48:00,74.6,54.0,29.85,SSW,197,8.1,10.2,49,0.00,,,0.00,TxWx,2013-05-15 09:48:00,
2013-05-15 04:54:00,74.5,54.0,29.85,SSW,199,9.6,9.6,49,0.00,,,0.00,TxWx,2013-05-15 09:54:00,
2013-05-15 04:59:00,74.7,54.0,29.85,SSW,201,21.3,25.2,49,0.00,,,0.00,TxWx,2013-05-15 09:59:00,
2013-05-15 05:04:00,74.6,54.0,29.85,SSW,201,15.9,15.9,49,0.00,,,0.00,TxWx,2013-05-15 10:04:00,
2013-05-15 05:09:00,74.7,54.0,29.86,SSW,200,18.3,20.4,49,0.00,,,0.00,TxWx,2013-05-15 10:09:00,
2013-05-15 05:14:00,74.6,54.0,29.86,SSW,200,2.4,2.7,49,0.00,,,0.00,TxWx,2013-05-15 10:14:00,
2013-05-15 05:19:00,74.6,54.0,29.86,SSW,200,15.0,15.0,49,0.00,,,0.00,TxWx,2013-05-15 10:19:00,
2013-05-15 05:24:00,74.6,54.0,29.86,SSW,202,11.4,11.4,49,0.00,,,0.00,TxWx,2013-05-15 10:24:00,
2013-05-15 05:29:00,74.5,55.0,29.87,SSW,209,11.7,18.3,50,0.00,,,0.00,TxWx,2013-05-15 10:29:00,
2013-05-15 05:34:00,74.4,54.0,29.86,SSW,202,8.4,8.4,50,0.00,,,0.00,TxWx,2013-05-15 10:34:00,
2013-05-15 05:40:00,74.3,54.0,29.87,SSW,196,3.6,4.5,50,0.00,,,0.00,TxWx,2013-05-15 10:40:00,
2013-05-15 05:45:00,74.1,54.0,29.87,SSW,199,3.9,4.8,51,0.00,,,0.00,TxWx,2013-05-15 10:45:00,
2013-05-15 05:50:00,74.1,54.0,29.88,SSW,204,7.2,8.1,51,0.00,,,0.00,TxWx,2013-05-15 10:50:00,
2013-05-15 05:55:00,73.9,55.0,29.88,SSW,205,5.4,5.4,51,0.00,,,0.00,TxWx,2013-05-15 10:55:00,
2013-05-15 06:01:00,74.0,55.0,29.88,SSW,197,5.7,5.7,51,0.00,,,0.00,TxWx,2013-05-15 11:01:00,
2013-05-15 06:06:00,73.9,55.0,29.89,SSW,204,3.3,5.1,51,0.00,,,0.00,TxWx,2013-05-15 11:06:00,
2013-05-15 06:11:00,73.8,55.0,29.89,SSW,202,5.4,6.3,52,0.00,,,0.00,TxWx,2013-05-15 11:11:00,
2013-05-15 06:16:00,73.7,55.0,29.89,SSW,205,6.3,6.3,52,0.00,,,0.00,TxWx,2013-05-15 11:16:00,
2013-05-15 06:22:00,73.1,55.0,29.89,SSW,201,6.9,6.9,54,0.00,,,0.00,TxWx,2013-05-15 11:22:00,
2013-05-15 06:27:00,72.9,56.0,29.90,SSW,209,12.0,12.0,55,0.00,,,0.00,TxWx,2013-05-15 11:27:00,
2013-05-15 06:32:00,72.9,56.0,29.90,SSW,203,3.9,4.8,55,0.00,,,0.00,TxWx,2013-05-15 11:32:00,
2013-05-15 06:37:00,73.2,55.0,29.90,SSW,209,5.7,5.7,54,0.00,,,0.00,TxWx,2013-05-15 11:37:00,
2013-05-15 06:43:00,73.1,55.0,29.90,SSW,207,1.5,1.5,54,0.00,,,0.00,TxWx,2013-05-15 11:43:00,
2013-05-15 06:48:00,73.5,55.0,29.91,SSW,212,5.4,5.4,53,0.00,,,0.00,TxWx,2013-05-15 11:48:00,
2013-05-15 06:57:00,73.9,54.0,29.92,SSW,206,7.5,8.7,51,0.00,,,0.00,TxWx,2013-05-15 11:57:00,
2013-05-15 07:02:00,73.6,55.0,29.91,SSW,201,3.9,3.9,51,0.00,,,0.00,TxWx,2013-05-15 12:02:00,
2013-05-15 07:07:00,73.4,54.0,29.91,SSW,206,6.6,6.9,52,0.00,,,0.00,TxWx,2013-05-15 12:07:00,
2013-05-15 07:12:00,73.6,55.0,29.91,SSW,207,4.2,4.2,51,0.00,,,0.00,TxWx,2013-05-15 12:12:00,
2013-05-15 07:19:00,73.6,55.0,29.90,SSW,211,2.7,3.3,52,0.00,,,0.00,TxWx,2013-05-15 12:19:00,
2013-05-15 07:25:00,73.3,55.0,29.91,SW,216,5.1,5.4,53,0.00,,,0.00,TxWx,2013-05-15 12:25:00,
2013-05-15 07:30:00,73.3,55.0,29.92,SSW,204,3.3,3.3,53,0.00,,,0.00,TxWx,2013-05-15 12:30:00,
2013-05-15 07:35:00,73.3,55.0,29.92,SSW,206,2.1,2.4,53,0.00,,,0.00,TxWx,2013-05-15 12:35:00,
2013-05-15 07:41:00,73.0,56.0,29.92,SSW,203,6.6,7.2,55,0.00,,,0.00,TxWx,2013-05-15 12:41:00,
2013-05-15 07:47:00,72.8,56.0,29.93,SSW,197,6.0,6.3,55,0.00,,,0.00,TxWx,2013-05-15 12:47:00,
2013-05-15 07:52:00,73.0,56.0,29.93,South,188,1.5,1.5,56,0.00,,,0.00,TxWx,2013-05-15 12:52:00,
2013-05-15 07:58:00,72.9,57.0,29.93,South,185,0.9,0.9,57,0.00,,,0.00,TxWx,2013-05-15 12:58:00,
2013-05-15 08:03:00,72.8,57.0,29.93,SSW,200,7.2,8.1,57,0.00,,,0.00,TxWx,2013-05-15 13:03:00,
2013-05-15 08:09:00,73.0,57.0,29.93,SSW,193,4.5,4.5,57,0.00,,,0.00,TxWx,2013-05-15 13:09:00,
2013-05-15 08:14:00,73.2,56.0,29.93,SSW,201,2.1,2.7,56,0.00,,,0.00,TxWx,2013-05-15 13:14:00,
2013-05-15 08:22:00,73.4,56.0,29.94,SSW,197,2.4,2.7,56,0.00,,,0.00,TxWx,2013-05-15 13:22:00,
2013-05-15 08:31:00,73.1,57.0,29.95,SSW,202,7.2,7.2,57,0.00,,,0.00,TxWx,2013-05-15 13:31:00,
2013-05-15 08:36:00,72.9,57.0,29.95,SSW,195,3.9,3.9,57,0.00,,,0.00,TxWx,2013-05-15 13:36:00,
2013-05-15 08:42:00,73.1,57.0,29.95,SSW,201,6.9,6.9,57,0.00,,,0.00,TxWx,2013-05-15 13:42:00,
2013-05-15 08:47:00,73.4,56.0,29.96,SSW,197,5.4,5.4,56,0.00,,,0.00,TxWx,2013-05-15 13:47:00,
2013-05-15 08:54:00,74.2,57.0,29.96,SSW,210,2.7,3.3,55,0.00,,,0.00,TxWx,2013-05-15 13:54:00,
2013-05-15 08:59:00,74.5,56.0,29.96,SSW,209,7.2,7.2,52,0.00,,,0.00,TxWx,2013-05-15 13:59:00,
2013-05-15 09:05:00,74.7,55.0,29.96,SW,214,3.9,4.2,50,0.00,,,0.00,TxWx,2013-05-15 14:05:00,
2013-05-15 09:11:00,74.9,55.0,29.96,SW,216,4.8,4.8,50,0.00,,,0.00,TxWx,2013-05-15 14:11:00,
2013-05-15 09:16:00,75.1,55.0,29.96,SSW,202,7.2,7.2,50,0.00,,,0.00,TxWx,2013-05-15 14:16:00,
2013-05-15 09:22:00,75.0,55.0,29.95,SSW,197,5.7,6.6,51,0.00,,,0.00,TxWx,2013-05-15 14:22:00,
2013-05-15 09:27:00,75.3,55.0,29.95,SSW,201,6.0,6.0,50,0.00,,,0.00,TxWx,2013-05-15 14:27:00,
2013-05-15 09:33:00,76.2,55.0,29.95,SSW,207,4.8,5.1,48,0.00,,,0.00,TxWx,2013-05-15 14:33:00,
2013-05-15 09:39:00,76.5,55.0,29.96,SSW,206,9.3,9.3,46,0.00,,,0.00,TxWx,2013-05-15 14:39:00,
2013-05-15 09:44:00,76.5,55.0,29.96,SSW,210,5.4,5.4,46,0.00,,,0.00,TxWx,2013-05-15 14:44:00,
2013-05-15 09:49:00,76.4,52.0,29.96,SSW,212,9.0,10.5,44,0.00,,,0.00,TxWx,2013-05-15 14:49:00,
2013-05-15 09:56:00,77.2,53.0,29.96,SSW,211,6.9,7.2,43,0.00,,,0.00,TxWx,2013-05-15 14:56:00,
2013-05-15 10:01:00,78.0,53.0,29.96,SSW,208,4.2,5.1,42,0.00,,,0.00,TxWx,2013-05-15 15:01:00,
2013-05-15 10:07:00,77.9,51.0,29.96,SW,216,9.9,11.1,39,0.00,,,0.00,TxWx,2013-05-15 15:07:00,
2013-05-15 10:13:00,77.5,50.0,29.97,SSW,212,7.5,7.8,38,0.00,,,0.00,TxWx,2013-05-15 15:13:00,
2013-05-15 10:19:00,76.7,49.0,29.97,SSW,213,5.4,6.6,38,0.00,,,0.00,TxWx,2013-05-15 15:19:00,
2013-05-15 10:24:00,76.7,50.0,29.98,SSW,206,7.2,7.2,39,0.00,,,0.00,TxWx,2013-05-15 15:24:00,
2013-05-15 10:30:00,77.5,50.0,29.98,SW,214,9.3,9.3,38,0.00,,,0.00,TxWx,2013-05-15 15:30:00,
2013-05-15 10:36:00,77.6,49.0,29.98,SW,214,8.1,8.1,37,0.00,,,0.00,TxWx,2013-05-15 15:36:00,
2013-05-15 10:42:00,78.1,48.0,29.98,SW,217,9.3,9.3,35,0.00,,,0.00,TxWx,2013-05-15 15:42:00,
2013-05-15 10:47:00,78.6,50.0,29.98,SSW,213,11.7,11.7,36,0.00,,,0.00,TxWx,2013-05-15 15:47:00,
2013-05-15 10:52:00,78.6,49.0,29.98,SW,214,6.6,8.1,35,0.00,,,0.00,TxWx,2013-05-15 15:52:00,
2013-05-15 10:59:00,79.4,48.0,29.97,SSW,212,11.4,11.4,34,0.00,,,0.00,TxWx,2013-05-15 15:59:00,
2013-05-15 11:04:00,79.6,48.0,29.97,SW,219,8.4,9.0,33,0.00,,,0.00,TxWx,2013-05-15 16:04:00,
2013-05-15 11:09:00,79.7,48.0,29.97,SSW,210,3.9,4.5,33,0.00,,,0.00,TxWx,2013-05-15 16:09:00,
2013-05-15 11:15:00,80.0,47.0,29.97,SW,222,11.1,11.1,32,0.00,,,0.00,TxWx,2013-05-15 16:15:00,
2013-05-15 11:20:00,79.9,47.0,29.97,SW,230,8.1,8.1,32,0.00,,,0.00,TxWx,2013-05-15 16:20:00,
2013-05-15 11:26:00,80.1,47.0,29.97,SW,234,11.4,13.5,32,0.00,,,0.00,TxWx,2013-05-15 16:26:00,
2013-05-15 11:31:00,80.3,45.0,29.97,SW,224,9.3,9.3,30,0.00,,,0.00,TxWx,2013-05-15 16:31:00,
2013-05-15 11:36:00,80.2,45.0,29.97,SW,230,7.2,8.1,30,0.00,,,0.00,TxWx,2013-05-15 16:36:00,
2013-05-15 11:42:00,80.4,45.0,29.97,SW,223,3.0,3.0,29,0.00,,,0.00,TxWx,2013-05-15 16:42:00,
2013-05-15 11:47:00,80.8,46.0,29.97,SW,215,7.8,8.7,29,0.00,,,0.00,TxWx,2013-05-15 16:47:00,
2013-05-15 11:53:00,80.3,46.0,29.98,SW,236,7.5,7.8,31,0.00,,,0.00,TxWx,2013-05-15 16:53:00,
2013-05-15 11:58:00,79.9,48.0,29.98,SW,226,10.2,12.3,33,0.00,,,0.00,TxWx,2013-05-15 16:58:00,
2013-05-15 12:03:00,79.2,48.0,29.98,SW,226,5.4,5.4,34,0.00,,,0.00,TxWx,2013-05-15 17:03:00,
2013-05-15 12:09:00,79.2,47.0,29.98,SW,228,9.3,10.2,33,0.00,,,0.00,TxWx,2013-05-15 17:09:00,
2013-05-15 12:14:00,79.3,48.0,29.98,SW,231,8.7,8.7,34,0.00,,,0.00,TxWx,2013-05-15 17:14:00,
2013-05-15 12:21:00,79.4,48.0,29.98,WSW,237,9.3,10.5,34,0.00,,,0.00,TxWx,2013-05-15 17:21:00,
2013-05-15 12:26:00,79.1,47.0,29.98,SW,232,9.9,9.9,33,0.00,,,0.00,TxWx,2013-05-15 17:26:00,
2013-05-15 12:31:00,78.6,47.0,29.98,SW,229,11.4,12.6,33,0.00,,,0.00,TxWx,2013-05-15 17:31:00,
2013-05-15 12:36:00,78.9,48.0,29.98,SW,223,15.3,15.6,34,0.00,,,0.00,TxWx,2013-05-15 17:36:00,
2013-05-15 12:41:00,78.4,46.0,29.98,SW,216,10.8,11.1,33,0.00,,,0.00,TxWx,2013-05-15 17:41:00,
2013-05-15 12:46:00,78.6,50.0,29.98,SW,223,11.1,11.1,36,0.00,,,0.00,TxWx,2013-05-15 17:46:00,
2013-05-15 12:52:00,78.3,47.0,29.98,SW,221,12.0,13.2,34,0.00,,,0.00,TxWx,2013-05-15 17:52:00,
2013-05-15 12:57:00,78.7,49.0,29.97,SW,221,9.6,11.1,35,0.00,,,0.00,TxWx,2013-05-15 17:57:00,
2013-05-15 13:03:00,78.8,48.0,29.97,SW,225,14.1,15.0,34,0.00,,,0.00,TxWx,2013-05-15 18:03:00,
2013-05-15 13:08:00,78.2,47.0,29.98,SW,229,6.0,6.0,34,0.00,,,0.00,TxWx,2013-05-15 18:08:00,
2013-05-15 13:13:00,78.5,50.0,29.98,SW,218,8.1,9.9,36,0.00,,,0.00,TxWx,2013-05-15 18:13:00,
2013-05-15 13:18:00,78.2,46.0,29.98,SW,218,9.0,9.6,33,0.00,,,0.00,TxWx,2013-05-15 18:18:00,
2013-05-15 13:24:00,78.1,46.0,29.98,SW,221,10.8,10.8,33,0.00,,,0.00,TxWx,2013-05-15 18:24:00,
2013-05-15 13:32:00,78.3,48.0,29.98,West,281,7.2,7.8,36,0.00,,,0.00,TxWx,2013-05-15 18:32:00,
2013-05-15 13:37:00,78.1,47.0,29.98,WSW,252,13.2,13.2,34,0.00,,,0.00,TxWx,2013-05-15 18:37:00,
2013-05-15 13:42:00,77.8,47.0,29.98,NW,307,6.6,8.1,34,0.00,,,0.00,TxWx,2013-05-15 18:42:00,
2013-05-15 13:47:00,77.6,49.0,29.97,WNW,296,8.4,9.6,37,0.00,,,0.00,TxWx,2013-05-15 18:47:00,
2013-05-15 13:53:00,78.3,48.0,29.98,WSW,250,4.5,4.8,36,0.00,,,0.00,TxWx,2013-05-15 18:53:00,
2013-05-15 13:59:00,78.6,49.0,29.97,SW,226,9.9,11.7,35,0.00,,,0.00,TxWx,2013-05-15 18:59:00,
2013-05-15 14:06:00,77.5,48.0,29.97,SW,230,7.2,8.1,35,0.00,,,0.00,TxWx,2013-05-15 19:06:00,
2013-05-15 14:11:00,77.9,48.0,29.97,SW,236,9.3,9.3,35,0.00,,,0.00,TxWx,2013-05-15 19:11:00,
2013-05-15 14:16:00,78.0,48.0,29.97,SW,234,9.3,9.3,35,0.00,,,0.00,TxWx,2013-05-15 19:16:00,
2013-05-15 14:22:00,78.2,47.0,29.97,SW,231,7.2,7.5,34,0.00,,,0.00,TxWx,2013-05-15 19:22:00,
2013-05-15 14:29:00,78.3,48.0,29.97,SW,229,6.9,8.4,35,0.00,,,0.00,TxWx,2013-05-15 19:29:00,
2013-05-15 14:34:00,77.7,48.0,29.97,SW,233,7.2,7.2,36,0.00,,,0.00,TxWx,2013-05-15 19:34:00,
2013-05-15 14:39:00,78.2,49.0,29.98,WNW,286,8.7,8.7,36,0.00,,,0.00,TxWx,2013-05-15 19:39:00,
2013-05-15 14:44:00,78.3,47.0,29.98,SW,232,9.6,9.6,34,0.00,,,0.00,TxWx,2013-05-15 19:44:00,
2013-05-15 14:50:00,78.2,47.0,29.98,WSW,241,11.1,11.7,34,0.00,,,0.00,TxWx,2013-05-15 19:50:00,
2013-05-15 14:55:00,78.7,49.0,29.98,West,271,11.4,11.4,36,0.00,,,0.00,TxWx,2013-05-15 19:55:00,
2013-05-15 15:03:00,77.7,48.0,29.98,WSW,247,11.1,11.1,35,0.00,,,0.00,TxWx,2013-05-15 20:03:00,
2013-05-15 15:08:00,77.8,47.0,29.97,WNW,295,9.0,11.1,34,0.00,,,0.00,TxWx,2013-05-15 20:08:00,
2013-05-15 15:13:00,77.3,47.0,29.97,WNW,290,9.0,11.7,35,0.00,,,0.00,TxWx,2013-05-15 20:13:00,
2013-05-15 15:19:00,77.6,49.0,29.97,SW,221,7.8,7.8,36,0.00,,,0.00,TxWx,2013-05-15 20:19:00,
2013-05-15 15:25:00,77.3,46.0,29.96,WSW,237,9.9,10.8,34,0.00,,,0.00,TxWx,2013-05-15 20:25:00,
2013-05-15 15:30:00,76.7,48.0,29.96,SW,229,9.3,9.3,37,0.00,,,0.00,TxWx,2013-05-15 20:30:00,
2013-05-15 15:35:00,76.9,48.0,29.96,WSW,241,10.2,10.2,36,0.00,,,0.00,TxWx,2013-05-15 20:35:00,
2013-05-15 15:41:00,77.3,47.0,29.96,NW,308,12.0,12.0,35,0.00,,,0.00,TxWx,2013-05-15 20:41:00,
2013-05-15 15:46:00,76.8,47.0,29.95,WNW,299,11.4,12.6,35,0.00,,,0.00,TxWx,2013-05-15 20:46:00,
2013-05-15 15:52:00,76.9,48.0,29.95,WNW,287,9.9,9.9,36,0.00,,,0.00,TxWx,2013-05-15 20:52:00,
2013-05-15 15:58:00,76.8,47.0,29.96,WNW,292,10.8,12.0,35,0.00,,,0.00,TxWx,2013-05-15 20:58:00,
2013-05-15 16:03:00,76.6,48.0,29.96,WNW,294,9.9,11.7,36,0.00,,,0.00,TxWx,2013-05-15 21:03:00,
2013-05-15 16:10:00,76.6,49.0,29.97,WNW,293,6.6,6.6,37,0.00,,,0.00,TxWx,2013-05-15 21:10:00,
2013-05-15 16:15:00,77.0,49.0,29.96,NW,309,6.3,6.3,37,0.00,,,0.00,TxWx,2013-05-15 21:15:00,
2013-05-15 16:20:00,76.8,47.0,29.97,WNW,292,7.8,7.8,35,0.00,,,0.00,TxWx,2013-05-15 21:20:00,
2013-05-15 16:25:00,76.6,49.0,29.97,WNW,284,8.7,8.7,37,0.00,,,0.00,TxWx,2013-05-15 21:25:00,
2013-05-15 16:31:00,76.7,48.0,29.97,WNW,301,6.9,7.5,37,0.00,,,0.00,TxWx,2013-05-15 21:31:00,
2013-05-15 16:36:00,76.5,46.0,29.96,WSW,256,10.2,10.2,35,0.00,,,0.00,TxWx,2013-05-15 21:36:00,
2013-05-15 16:41:00,76.3,47.0,29.96,WNW,294,5.4,5.7,36,0.00,,,0.00,TxWx,2013-05-15 21:41:00,
2013-05-15 16:47:00,76.1,47.0,29.95,WNW,303,7.8,7.8,36,0.00,,,0.00,TxWx,2013-05-15 21:47:00,
2013-05-15 16:52:00,76.7,48.0,29.95,WNW,290,3.6,3.6,36,0.00,,,0.00,TxWx,2013-05-15 21:52:00,
2013-05-15 16:57:00,77.0,48.0,29.96,NW,314,7.2,7.2,36,0.00,,,0.00,TxWx,2013-05-15 21:57:00,
2013-05-15 17:03:00,76.9,48.0,29.96,WSW,238,13.2,13.2,36,0.00,,,0.00,TxWx,2013-05-15 22:03:00,
2013-05-15 17:08:00,76.6,48.0,29.97,WNW,298,11.4,11.4,36,0.00,,,0.00,TxWx,2013-05-15 22:08:00,
2013-05-15 17:13:00,75.9,47.0,29.96,WNW,302,14.1,14.1,36,0.00,,,0.00,TxWx,2013-05-15 22:13:00,
2013-05-15 17:19:00,75.5,47.0,29.96,NW,308,8.4,9.6,37,0.00,,,0.00,TxWx,2013-05-15 22:19:00,
2013-05-15 17:24:00,75.1,47.0,29.96,WSW,242,8.1,9.0,37,0.00,,,0.00,TxWx,2013-05-15 22:24:00,
2013-05-15 17:29:00,74.8,48.0,29.96,NW,312,7.5,7.8,38,0.00,,,0.00,TxWx,2013-05-15 22:29:00,
2013-05-15 17:35:00,74.4,47.0,29.96,West,268,7.2,7.2,39,0.00,,,0.00,TxWx,2013-05-15 22:35:00,
2013-05-15 17:41:00,74.4,47.0,29.96,West,273,5.1,6.6,40,0.00,,,0.00,TxWx,2013-05-15 22:41:00,
2013-05-15 17:47:00,74.5,49.0,29.96,West,266,4.2,4.5,40,0.00,,,0.00,TxWx,2013-05-15 22:47:00,
2013-05-15 17:52:00,74.7,48.0,29.96,West,275,9.6,9.6,39,0.00,,,0.00,TxWx,2013-05-15 22:52:00,
2013-05-15 17:57:00,75.0,48.0,29.96,West,272,5.7,6.6,39,0.00,,,0.00,TxWx,2013-05-15 22:57:00,
2013-05-15 18:04:00,74.6,48.0,29.95,West,279,4.5,4.8,38,0.00,,,0.00,TxWx,2013-05-15 23:04:00,
2013-05-15 18:10:00,74.4,48.0,29.95,West,278,6.0,6.0,40,0.00,,,0.00,TxWx,2013-05-15 23:10:00,
2013-05-15 18:16:00,74.5,48.0,29.95,WNW,283,4.5,4.5,39,0.00,,,0.00,TxWx,2013-05-15 23:16:00,
2013-05-15 18:21:00,74.6,49.0,29.95,South,184,2.1,2.1,40,0.00,,,0.00,TxWx,2013-05-15 23:21:00,
2013-05-15 18:26:00,74.8,50.0,29.95,South,171,0.3,0.6,41,0.00,,,0.00,TxWx,2013-05-15 23:26:00,
2013-05-15 18:32:00,74.9,49.0,29.95,SSW,207,0.3,0.3,40,0.00,,,0.00,TxWx,2013-05-15 23:32:00,
2013-05-15 18:37:00,74.8,50.0,29.96,WNW,284,6.3,6.3,42,0.00,,,0.00,TxWx,2013-05-15 23:37:00,
2013-05-15 18:42:00,74.9,50.0,29.96,West,278,2.7,2.7,41,0.00,,,0.00,TxWx,2013-05-15 23:42:00,
2013-05-15 18:47:00,74.8,50.0,29.96,West,278,4.5,4.5,41,0.00,,,0.00,TxWx,2013-05-15 23:47:00,
2013-05-15 18:53:00,74.4,48.0,29.96,West,281,6.6,6.6,40,0.00,,,0.00,TxWx,2013-05-15 23:53:00,
2013-05-15 18:58:00,74.2,48.0,29.96,WNW,282,4.2,4.2,41,0.00,,,0.00,TxWx,2013-05-15 23:58:00,
2013-05-15 19:03:00,74.0,50.0,29.96,WNW,290,3.0,3.3,43,0.00,,,0.00,TxWx,2013-05-16 00:03:00,
2013-05-15 19:09:00,73.3,49.0,29.96,WNW,284,4.8,4.8,43,0.00,,,0.00,TxWx,2013-05-16 00:09:00,
2013-05-15 19:14:00,73.0,49.0,29.95,WNW,285,3.9,3.9,44,0.00,,,0.00,TxWx,2013-05-16 00:14:00,
2013-05-15 19:20:00,72.8,50.0,29.96,WNW,294,3.0,3.0,44,0.00,,,0.00,TxWx,2013-05-16 00:20:00,
2013-05-15 19:24:00,72.6,49.0,29.96,SSE,162,1.5,1.5,43,0.00,,,0.00,TxWx,2013-05-16 00:24:00,
2013-05-15 19:29:00,72.4,48.0,29.96,South,174,1.8,1.8,43,0.00,,,0.00,TxWx,2013-05-16 00:29:00,
2013-05-15 19:35:00,72.2,48.0,29.97,South,179,0.9,0.9,43,0.00,,,0.00,TxWx,2013-05-16 00:35:00,
2013-05-15 19:40:00,72.1,48.0,29.97,West,273,2.4,2.4,43,0.00,,,0.00,TxWx,2013-05-16 00:40:00,
2013-05-15 19:45:00,72.0,49.0,29.98,West,270,1.5,1.5,44,0.00,,,0.00,TxWx,2013-05-16 00:45:00,
2013-05-15 19:51:00,71.8,49.0,29.98,West,275,1.2,1.2,44,0.00,,,0.00,TxWx,2013-05-16 00:51:00,
2013-05-15 19:56:00,71.4,50.0,29.98,West,262,3.3,3.3,47,0.00,,,0.00,TxWx,2013-05-16 00:56:00,
2013-05-15 20:01:00,71.3,50.0,29.98,West,266,0.0,0.0,48,0.00,,,0.00,TxWx,2013-05-16 01:01:00,
2013-05-15 20:06:00,71.0,50.0,29.97,WSW,245,1.5,1.5,48,0.00,,,0.00,TxWx,2013-05-16 01:06:00,
2013-05-15 20:11:00,70.7,51.0,29.97,SSW,204,1.2,1.5,49,0.00,,,0.00,TxWx,2013-05-16 01:11:00,
2013-05-15 20:17:00,70.6,51.0,29.95,SSW,197,3.6,3.6,49,0.00,,,0.00,TxWx,2013-05-16 01:17:00,
2013-05-15 20:22:00,70.5,50.0,29.94,South,191,1.2,1.2,50,0.00,,,0.00,TxWx,2013-05-16 01:22:00,
2013-05-15 20:27:00,70.4,49.0,29.95,West,272,2.1,2.1,48,0.00,,,0.00,TxWx,2013-05-16 01:27:00,
2013-05-15 20:32:00,70.2,51.0,29.97,West,280,5.1,5.4,51,0.00,,,0.00,TxWx,2013-05-16 01:32:00,
2013-05-15 20:38:00,69.9,50.0,29.95,SSW,198,2.1,2.4,50,0.00,,,0.00,TxWx,2013-05-16 01:38:00,
2013-05-15 20:43:00,69.5,50.0,29.96,SSW,204,3.6,3.6,52,0.00,,,0.00,TxWx,2013-05-16 01:43:00,
2013-05-15 20:48:00,69.0,51.0,29.96,SSW,201,2.4,3.0,53,0.00,,,0.00,TxWx,2013-05-16 01:48:00,
2013-05-15 20:55:00,68.6,52.0,29.96,SSW,202,1.8,1.8,55,0.00,,,0.00,TxWx,2013-05-16 01:55:00,
2013-05-15 21:00:00,68.3,52.0,29.96,SSW,205,3.9,3.9,56,0.00,,,0.00,TxWx,2013-05-16 02:00:00,
2013-05-15 21:06:00,69.5,52.0,29.96,SSW,203,5.4,6.0,53,0.00,,,0.00,TxWx,2013-05-16 02:06:00,
2013-05-15 21:11:00,69.9,50.0,29.96,SSW,204,4.8,5.4,50,0.00,,,0.00,TxWx,2013-05-16 02:11:00,
2013-05-15 21:17:00,70.0,50.0,29.96,SSW,199,7.2,8.7,49,0.00,,,0.00,TxWx,2013-05-16 02:17:00,
2013-05-15 21:22:00,69.9,50.0,29.96,SSW,196,5.1,5.4,49,0.00,,,0.00,TxWx,2013-05-16 02:22:00,
2013-05-15 21:28:00,69.7,50.0,29.97,WSW,255,5.1,5.1,50,0.00,,,0.00,TxWx,2013-05-16 02:28:00,
2013-05-15 21:33:00,68.3,51.0,29.99,WSW,248,10.8,13.8,54,0.00,,,0.00,TxWx,2013-05-16 02:33:00,
2013-05-15 21:38:00,67.5,51.0,29.99,WSW,251,1.8,1.8,55,0.00,,,0.00,TxWx,2013-05-16 02:38:00,
2013-05-15 21:44:00,67.0,51.0,29.99,WSW,251,7.5,8.7,56,0.00,,,0.00,TxWx,2013-05-16 02:44:00,
2013-05-15 21:49:00,66.9,51.0,29.99,WSW,244,3.6,3.6,57,0.00,,,0.00,TxWx,2013-05-16 02:49:00,
2013-05-15 21:55:00,66.4,50.0,29.99,South,179,1.8,2.1,57,0.00,,,0.00,TxWx,2013-05-16 02:55:00,
2013-05-15 22:00:00,66.3,51.0,29.99,SW,235,0.6,0.9,58,0.00,,,0.00,TxWx,2013-05-16 03:00:00,
2013-05-15 22:05:00,66.3,51.0,29.99,WSW,237,2.1,2.4,58,0.00,,,0.00,TxWx,2013-05-16 03:05:00,
2013-05-15 22:11:00,66.1,50.0,29.99,South,173,0.3,0.6,57,0.00,,,0.00,TxWx,2013-05-16 03:11:00,
2013-05-15 22:16:00,65.7,51.0,29.99,SSW,211,0.0,0.0,58,0.00,,,0.00,TxWx,2013-05-16 03:16:00,
2013-05-15 22:22:00,65.1,50.0,29.99,SSW,201,0.0,0.0,59,0.00,,,0.00,TxWx,2013-05-16 03:22:00,
2013-05-15 22:27:00,64.5,50.0,29.98,SSW,197,0.9,1.2,60,0.00,,,0.00,TxWx,2013-05-16 03:27:00,
2013-05-15 22:33:00,64.0,50.0,29.98,South,191,2.1,2.1,62,0.00,,,0.00,TxWx,2013-05-16 03:33:00,
2013-05-15 22:38:00,63.7,51.0,29.98,SSW,193,1.2,1.2,63,0.00,,,0.00,TxWx,2013-05-16 03:38:00,
2013-05-15 22:43:00,63.5,50.0,29.97,SSW,194,1.2,1.2,63,0.00,,,0.00,TxWx,2013-05-16 03:43:00,
2013-05-15 22:49:00,63.0,51.0,29.97,South,188,1.8,2.1,64,0.00,,,0.00,TxWx,2013-05-16 03:49:00,
2013-05-15 22:54:00,62.6,51.0,29.97,South,187,2.1,2.4,65,0.00,,,0.00,TxWx,2013-05-16 03:54:00,
2013-05-15 23:01:00,63.0,50.0,29.97,SSW,196,1.5,1.8,64,0.00,,,0.00,TxWx,2013-05-16 04:01:00,
2013-05-15 23:02:00,63.0,51.0,29.97,South,191,3.3,3.6,64,0.00,,,0.00,TxWx,2013-05-16 04:02:00,
2013-05-15 23:07:00,62.5,51.0,29.97,South,176,1.2,1.2,65,0.00,,,0.00,TxWx,2013-05-16 04:07:00,
2013-05-15 23:12:00,62.7,51.0,29.97,SW,223,3.0,3.0,65,0.00,,,0.00,TxWx,2013-05-16 04:12:00,
2013-05-15 23:17:00,62.6,52.0,29.97,SW,215,5.7,5.7,68,0.00,,,0.00,TxWx,2013-05-16 04:17:00,
2013-05-15 23:22:00,62.8,52.0,29.97,SW,218,0.6,0.6,68,0.00,,,0.00,TxWx,2013-05-16 04:22:00,
2013-05-15 23:27:00,62.4,51.0,29.97,South,182,1.2,1.2,67,0.00,,,0.00,TxWx,2013-05-16 04:27:00,
2013-05-15 23:33:00,62.2,51.0,29.98,SW,215,0.3,0.3,67,0.00,,,0.00,TxWx,2013-05-16 04:33:00,
2013-05-15 23:38:00,61.8,51.0,29.97,South,184,0.6,0.9,67,0.00,,,0.00,TxWx,2013-05-16 04:38:00,
2013-05-15 23:43:00,61.4,50.0,29.98,South,190,0.9,0.9,68,0.00,,,0.00,TxWx,2013-05-16 04:43:00,
2013-05-15 23:49:00,60.9,51.0,29.98,South,186,0.9,1.2,69,0.00,,,0.00,TxWx,2013-05-16 04:49:00,
2013-05-15 23:54:00,60.7,51.0,29.98,South,188,3.0,3.0,70,0.00,,,0.00,TxWx,2013-05-16 04:54:00,
2013-05-15 23:59:00,60.6,51.0,29.98,South,186,0.9,1.2,70,0.00,,,0.00,TxWx,2013-05-16 04:59:00,